Panama City, FL (32401)

10:40 AM CDT on September 02, 2014 (GMT -0500)
The Cove | Change Station
CLOSE
Current Station
Personal Weather Station
Location: Panama City, FL
Elevation: 15 ft
Nearby Weather Stations
Active Advisory: Coastal Hazard Statement

Elev 15 ft 30.16 °N, 85.65 °W | Updated 1 second ago

Partly Cloudy
Partly Cloudy
90.7 °F
Feels Like 110 °F
N
2.3
Wind Variable Wind from West
Gusts 2.3 mph

Today
High -- | Low -- °F
--% Chance of Precip.
Yesterday
High -- | Low -- °F
Precip. -- in
6:20 AM 7:04 PM
First Quarter, 52% visible
Pressure 30.12 in
Visibility 10.0 miles
Clouds Clear
Heat Index 110 °F
Dew Point 80 °F
Humidity 72%
Rainfall 0.00 in
Snow Depth Not available.
UV 7 out of 12
Pollen 7.70 out of 12
Air Quality Not available.
Flu Activity Not available.
METAR KPAM 021458Z AUTO 07006KT 10SM CLR 30/26 A3011 RMK AO2 SLP199 T03030255 50010 $

More Conditions Fewer Conditions

Pressure 30.12 in
Visibility 10.0 miles
Clouds Clear
Heat Index 110 °F
Dew Point 80 °F
Humidity 72%
Rainfall 0.00 in
Snow Depth Not available.
UV 7 out of 12
Pollen 7.70 out of 12
Air Quality Not available.
Flu Activity Not available.
METAR KPAM 021458Z AUTO 07006KT 10SM CLR 30/26 A3011 RMK AO2 SLP199 T03030255 50010 $

More Conditions Fewer Conditions

10-Day Weather Forecast

Almanac

Astronomy

Sep. 02, 2014 Rise Set
Actual Time 6:20 AM CDT 7:04 PM CDT
Civil Twilight 5:55 AM CDT 7:28 PM CDT
Nautical Twilight 5:27 AM CDT 7:57 PM CDT
Astronomical Twilight 4:57 AM CDT 8:26 PM CDT
Moon 1:33 PM CDT No Moon Set
Length of Visible Light 13h 32m
Length of Day
12h 43m
Tomorrow will be 1m 45s shorter.
First Quarter, 52% of the Moon is Illuminated
Today
First Quarter
Sep 8
Full
Sep 15
Last Quarter
Sep 24
New
Oct 1
First Quarter

Today's Extremes

State Highs State Lows

Community

WunderPhotos

Upload Photos

1,749,705 photos uploaded!

Nearby

Snow Depth

Station Depth Elevation
No new snow has been reported.

Earthquake Activity

City Distance Mag. Time & Date
No recent earthquake activity has been reported nearby.
Minimum magnitude displayed is 2.5.

Coastal Water Temperatures

Place Temperature
Panama City, FL 87.1 °F
Panama City Beach, FL 87.1 °F
Apalachicola, FL 89.1 °F

Nearby Weather Stations